sensor_id;sensor_type;location;lat;lon;timestamp;P1;durP1;ratioP1;P2;durP2;ratioP2
51636;SDS011;37713;53.254;6.460;2023-04-03T00:02:15;3.60;;;1.27;;
51636;SDS011;37713;53.254;6.460;2023-04-03T00:04:41;3.42;;;1.35;;
51636;SDS011;37713;53.254;6.460;2023-04-03T00:07:07;5.00;;;1.40;;
51636;SDS011;37713;53.254;6.460;2023-04-03T00:09:32;3.35;;;1.45;;
51636;SDS011;37713;53.254;6.460;2023-04-03T00:11:58;4.60;;;1.30;;
51636;SDS011;37713;53.254;6.460;2023-04-03T00:14:25;4.82;;;1.45;;
51636;SDS011;37713;53.254;6.460;2023-04-03T00:16:52;5.28;;;1.30;;
51636;SDS011;37713;53.254;6.460;2023-04-03T00:19:18;4.63;;;1.20;;
51636;SDS011;37713;53.254;6.460;2023-04-03T00:21:44;3.97;;;1.17;;
51636;SDS011;37713;53.254;6.460;2023-04-03T00:24:10;4.18;;;1.60;;
51636;SDS011;37713;53.254;6.460;2023-04-03T00:26:36;2.72;;;1.02;;
51636;SDS011;37713;53.254;6.460;2023-04-03T00:29:02;3.95;;;1.35;;
51636;SDS011;37713;53.254;6.460;2023-04-03T00:31:28;3.22;;;1.20;;
51636;SDS011;37713;53.254;6.460;2023-04-03T00:33:54;3.45;;;1.40;;
51636;SDS011;37713;53.254;6.460;2023-04-03T00:36:20;3.72;;;1.23;;
51636;SDS011;37713;53.254;6.460;2023-04-03T00:38:46;3.65;;;1.05;;
51636;SDS011;37713;53.254;6.460;2023-04-03T00:41:11;3.95;;;1.20;;
51636;SDS011;37713;53.254;6.460;2023-04-03T00:43:37;4.88;;;1.23;;
51636;SDS011;37713;53.254;6.460;2023-04-03T00:46:03;4.45;;;1.25;;
51636;SDS011;37713;53.254;6.460;2023-04-03T00:48:33;4.15;;;1.10;;
51636;SDS011;37713;53.254;6.460;2023-04-03T00:51:09;2.85;;;1.20;;
51636;SDS011;37713;53.254;6.460;2023-04-03T00:53:57;4.75;;;1.38;;
51636;SDS011;37713;53.254;6.460;2023-04-03T00:56:26;4.57;;;1.30;;
51636;SDS011;37713;53.254;6.460;2023-04-03T00:58:56;3.00;;;1.17;;
51636;SDS011;37713;53.254;6.460;2023-04-03T01:01:29;4.18;;;1.13;;
51636;SDS011;37713;53.254;6.460;2023-04-03T01:03:55;5.72;;;1.30;;
51636;SDS011;37713;53.254;6.460;2023-04-03T01:06:24;2.33;;;1.20;;
51636;SDS011;37713;53.254;6.460;2023-04-03T01:08:57;2.85;;;1.13;;
51636;SDS011;37713;53.254;6.460;2023-04-03T01:11:24;5.78;;;1.50;;
51636;SDS011;37713;53.254;6.460;2023-04-03T01:13:51;5.03;;;1.23;;
51636;SDS011;37713;53.254;6.460;2023-04-03T01:16:17;5.05;;;1.20;;
51636;SDS011;37713;53.254;6.460;2023-04-03T01:18:43;5.28;;;1.17;;
51636;SDS011;37713;53.254;6.460;2023-04-03T01:24:00;3.85;;;1.20;;
51636;SDS011;37713;53.254;6.460;2023-04-03T01:26:28;4.70;;;1.40;;
51636;SDS011;37713;53.254;6.460;2023-04-03T01:28:54;3.08;;;1.10;;
51636;SDS011;37713;53.254;6.460;2023-04-03T01:31:24;6.28;;;1.40;;
51636;SDS011;37713;53.254;6.460;2023-04-03T01:33:53;4.43;;;1.40;;
51636;SDS011;37713;53.254;6.460;2023-04-03T01:36:21;4.00;;;1.27;;
51636;SDS011;37713;53.254;6.460;2023-04-03T01:38:49;3.40;;;1.08;;
51636;SDS011;37713;53.254;6.460;2023-04-03T01:41:16;3.63;;;1.27;;
51636;SDS011;37713;53.254;6.460;2023-04-03T01:43:42;4.15;;;1.38;;
51636;SDS011;37713;53.254;6.460;2023-04-03T01:46:08;4.38;;;1.27;;
51636;SDS011;37713;53.254;6.460;2023-04-03T01:48:34;3.85;;;1.30;;
51636;SDS011;37713;53.254;6.460;2023-04-03T01:51:00;8.35;;;1.40;;
51636;SDS011;37713;53.254;6.460;2023-04-03T01:53:26;3.95;;;1.15;;
51636;SDS011;37713;53.254;6.460;2023-04-03T01:55:52;4.28;;;1.05;;
51636;SDS011;37713;53.254;6.460;2023-04-03T01:58:17;4.55;;;1.30;;
51636;SDS011;37713;53.254;6.460;2023-04-03T02:00:43;5.47;;;1.23;;
51636;SDS011;37713;53.254;6.460;2023-04-03T02:03:09;3.65;;;1.30;;
51636;SDS011;37713;53.254;6.460;2023-04-03T02:05:35;7.80;;;1.35;;
51636;SDS011;37713;53.254;6.460;2023-04-03T02:08:01;6.15;;;1.55;;
51636;SDS011;37713;53.254;6.460;2023-04-03T02:10:27;4.65;;;1.15;;
51636;SDS011;37713;53.254;6.460;2023-04-03T02:12:52;8.73;;;1.38;;
51636;SDS011;37713;53.254;6.460;2023-04-03T02:15:18;4.00;;;1.27;;
51636;SDS011;37713;53.254;6.460;2023-04-03T02:17:44;8.73;;;1.70;;
51636;SDS011;37713;53.254;6.460;2023-04-03T02:20:10;8.05;;;1.30;;
51636;SDS011;37713;53.254;6.460;2023-04-03T02:22:36;6.40;;;1.50;;
51636;SDS011;37713;53.254;6.460;2023-04-03T02:25:02;5.13;;;1.40;;
51636;SDS011;37713;53.254;6.460;2023-04-03T02:27:28;6.45;;;1.40;;
51636;SDS011;37713;53.254;6.460;2023-04-03T02:29:54;4.55;;;1.35;;
51636;SDS011;37713;53.254;6.460;2023-04-03T02:32:19;5.90;;;1.40;;
51636;SDS011;37713;53.254;6.460;2023-04-03T02:34:45;5.70;;;1.80;;
51636;SDS011;37713;53.254;6.460;2023-04-03T02:37:11;5.05;;;1.60;;
51636;SDS011;37713;53.254;6.460;2023-04-03T02:39:37;6.63;;;1.20;;
51636;SDS011;37713;53.254;6.460;2023-04-03T02:42:02;5.70;;;1.45;;
51636;SDS011;37713;53.254;6.460;2023-04-03T02:44:28;6.43;;;1.75;;
51636;SDS011;37713;53.254;6.460;2023-04-03T02:46:54;5.85;;;1.20;;
51636;SDS011;37713;53.254;6.460;2023-04-03T02:49:20;7.63;;;1.48;;
51636;SDS011;37713;53.254;6.460;2023-04-03T02:51:46;9.75;;;1.70;;
51636;SDS011;37713;53.254;6.460;2023-04-03T02:54:12;4.78;;;1.23;;
51636;SDS011;37713;53.254;6.460;2023-04-03T02:56:38;9.82;;;1.80;;
51636;SDS011;37713;53.254;6.460;2023-04-03T02:59:04;4.82;;;1.40;;
51636;SDS011;37713;53.254;6.460;2023-04-03T03:01:30;6.03;;;1.30;;
51636;SDS011;37713;53.254;6.460;2023-04-03T03:03:57;7.22;;;1.48;;
51636;SDS011;37713;53.254;6.460;2023-04-03T03:06:25;7.47;;;1.42;;
51636;SDS011;37713;53.254;6.460;2023-04-03T03:08:50;7.53;;;1.73;;
51636;SDS011;37713;53.254;6.460;2023-04-03T03:11:16;6.28;;;1.65;;
51636;SDS011;37713;53.254;6.460;2023-04-03T03:13:42;4.80;;;1.35;;
51636;SDS011;37713;53.254;6.460;2023-04-03T03:16:08;5.05;;;1.65;;
51636;SDS011;37713;53.254;6.460;2023-04-03T03:18:34;7.10;;;1.55;;
51636;SDS011;37713;53.254;6.460;2023-04-03T03:21:01;8.27;;;2.13;;
51636;SDS011;37713;53.254;6.460;2023-04-03T03:23:27;5.85;;;1.80;;
51636;SDS011;37713;53.254;6.460;2023-04-03T03:26:02;6.38;;;1.65;;
51636;SDS011;37713;53.254;6.460;2023-04-03T03:28:30;5.80;;;1.60;;
51636;SDS011;37713;53.254;6.460;2023-04-03T03:30:57;5.25;;;1.40;;
51636;SDS011;37713;53.254;6.460;2023-04-03T03:33:24;7.05;;;1.58;;
51636;SDS011;37713;53.254;6.460;2023-04-03T03:35:51;6.00;;;1.50;;
51636;SDS011;37713;53.254;6.460;2023-04-03T03:38:17;6.13;;;1.67;;
51636;SDS011;37713;53.254;6.460;2023-04-03T03:40:49;5.88;;;1.50;;
51636;SDS011;37713;53.254;6.460;2023-04-03T03:43:16;6.50;;;1.85;;
51636;SDS011;37713;53.254;6.460;2023-04-03T03:45:43;6.85;;;2.00;;
51636;SDS011;37713;53.254;6.460;2023-04-03T03:48:09;7.05;;;1.80;;
51636;SDS011;37713;53.254;6.460;2023-04-03T03:50:35;8.75;;;1.90;;
51636;SDS011;37713;53.254;6.460;2023-04-03T03:53:01;6.85;;;1.90;;
51636;SDS011;37713;53.254;6.460;2023-04-03T03:55:27;6.28;;;1.90;;
51636;SDS011;37713;53.254;6.460;2023-04-03T03:57:52;6.47;;;1.98;;
51636;SDS011;37713;53.254;6.460;2023-04-03T04:00:18;4.90;;;1.52;;
51636;SDS011;37713;53.254;6.460;2023-04-03T04:02:44;7.47;;;2.15;;
51636;SDS011;37713;53.254;6.460;2023-04-03T04:05:11;8.00;;;1.98;;
51636;SDS011;37713;53.254;6.460;2023-04-03T04:07:36;7.25;;;2.10;;
51636;SDS011;37713;53.254;6.460;2023-04-03T04:10:02;6.90;;;1.90;;
51636;SDS011;37713;53.254;6.460;2023-04-03T04:12:29;6.50;;;1.67;;
51636;SDS011;37713;53.254;6.460;2023-04-03T04:14:54;9.65;;;2.20;;
51636;SDS011;37713;53.254;6.460;2023-04-03T04:17:20;6.57;;;1.98;;
51636;SDS011;37713;53.254;6.460;2023-04-03T04:19:46;7.43;;;1.83;;
51636;SDS011;37713;53.254;6.460;2023-04-03T04:22:12;7.00;;;1.90;;
51636;SDS011;37713;53.254;6.460;2023-04-03T04:24:38;6.80;;;1.80;;
51636;SDS011;37713;53.254;6.460;2023-04-03T04:27:05;7.40;;;2.00;;
51636;SDS011;37713;53.254;6.460;2023-04-03T04:29:31;8.73;;;2.00;;
51636;SDS011;37713;53.254;6.460;2023-04-03T04:32:01;8.65;;;2.22;;
51636;SDS011;37713;53.254;6.460;2023-04-03T04:34:27;7.22;;;1.70;;
51636;SDS011;37713;53.254;6.460;2023-04-03T04:36:53;6.97;;;1.88;;
51636;SDS011;37713;53.254;6.460;2023-04-03T04:39:19;9.13;;;2.35;;
51636;SDS011;37713;53.254;6.460;2023-04-03T04:41:45;8.13;;;2.15;;
51636;SDS011;37713;53.254;6.460;2023-04-03T04:44:10;7.00;;;1.92;;
51636;SDS011;37713;53.254;6.460;2023-04-03T04:46:36;6.63;;;1.73;;
51636;SDS011;37713;53.254;6.460;2023-04-03T04:49:02;5.55;;;1.70;;
51636;SDS011;37713;53.254;6.460;2023-04-03T04:51:28;7.10;;;1.98;;
51636;SDS011;37713;53.254;6.460;2023-04-03T04:53:53;6.32;;;1.80;;
51636;SDS011;37713;53.254;6.460;2023-04-03T04:56:19;6.00;;;1.95;;
51636;SDS011;37713;53.254;6.460;2023-04-03T04:58:46;7.10;;;1.98;;
51636;SDS011;37713;53.254;6.460;2023-04-03T05:01:11;6.20;;;1.77;;
51636;SDS011;37713;53.254;6.460;2023-04-03T05:03:37;6.75;;;2.03;;
51636;SDS011;37713;53.254;6.460;2023-04-03T05:06:03;6.35;;;2.13;;
51636;SDS011;37713;53.254;6.460;2023-04-03T05:08:30;7.85;;;1.98;;
51636;SDS011;37713;53.254;6.460;2023-04-03T05:10:56;7.13;;;2.13;;
51636;SDS011;37713;53.254;6.460;2023-04-03T05:13:21;6.97;;;2.15;;
51636;SDS011;37713;53.254;6.460;2023-04-03T05:15:50;5.78;;;2.15;;
51636;SDS011;37713;53.254;6.460;2023-04-03T05:18:16;6.70;;;2.00;;
51636;SDS011;37713;53.254;6.460;2023-04-03T05:20:42;9.55;;;2.13;;
51636;SDS011;37713;53.254;6.460;2023-04-03T05:23:09;6.90;;;2.30;;
51636;SDS011;37713;53.254;6.460;2023-04-03T05:25:37;8.27;;;2.50;;
51636;SDS011;37713;53.254;6.460;2023-04-03T05:28:03;8.18;;;2.63;;
51636;SDS011;37713;53.254;6.460;2023-04-03T05:30:29;7.65;;;2.35;;
51636;SDS011;37713;53.254;6.460;2023-04-03T05:32:55;10.32;;;2.80;;
51636;SDS011;37713;53.254;6.460;2023-04-03T05:35:21;7.25;;;2.35;;
51636;SDS011;37713;53.254;6.460;2023-04-03T05:37:46;7.78;;;2.38;;
51636;SDS011;37713;53.254;6.460;2023-04-03T05:40:12;9.60;;;2.50;;
51636;SDS011;37713;53.254;6.460;2023-04-03T05:42:38;8.77;;;2.67;;
51636;SDS011;37713;53.254;6.460;2023-04-03T05:45:04;6.80;;;2.08;;
51636;SDS011;37713;53.254;6.460;2023-04-03T05:47:30;9.52;;;2.55;;
51636;SDS011;37713;53.254;6.460;2023-04-03T05:49:56;8.23;;;2.65;;
51636;SDS011;37713;53.254;6.460;2023-04-03T05:52:26;9.55;;;2.20;;
51636;SDS011;37713;53.254;6.460;2023-04-03T05:54:54;8.55;;;2.38;;
51636;SDS011;37713;53.254;6.460;2023-04-03T05:57:20;9.57;;;2.38;;
51636;SDS011;37713;53.254;6.460;2023-04-03T05:59:47;8.93;;;2.50;;
51636;SDS011;37713;53.254;6.460;2023-04-03T06:02:14;6.82;;;2.25;;
51636;SDS011;37713;53.254;6.460;2023-04-03T06:04:41;8.10;;;2.38;;
51636;SDS011;37713;53.254;6.460;2023-04-03T06:07:10;7.88;;;2.05;;
51636;SDS011;37713;53.254;6.460;2023-04-03T06:09:38;10.60;;;2.58;;
51636;SDS011;37713;53.254;6.460;2023-04-03T06:12:04;7.32;;;2.35;;
51636;SDS011;37713;53.254;6.460;2023-04-03T06:14:30;8.63;;;2.50;;
51636;SDS011;37713;53.254;6.460;2023-04-03T06:16:56;8.13;;;2.25;;
51636;SDS011;37713;53.254;6.460;2023-04-03T06:19:22;7.72;;;2.20;;
51636;SDS011;37713;53.254;6.460;2023-04-03T06:21:48;8.90;;;2.65;;
51636;SDS011;37713;53.254;6.460;2023-04-03T06:24:15;8.85;;;2.45;;
51636;SDS011;37713;53.254;6.460;2023-04-03T06:26:42;8.05;;;2.20;;
51636;SDS011;37713;53.254;6.460;2023-04-03T06:29:08;7.03;;;2.20;;
51636;SDS011;37713;53.254;6.460;2023-04-03T06:31:34;7.78;;;2.00;;
51636;SDS011;37713;53.254;6.460;2023-04-03T06:34:01;8.00;;;2.40;;
51636;SDS011;37713;53.254;6.460;2023-04-03T06:36:27;8.07;;;2.22;;
51636;SDS011;37713;53.254;6.460;2023-04-03T06:38:54;11.32;;;3.08;;
51636;SDS011;37713;53.254;6.460;2023-04-03T06:41:20;9.15;;;2.38;;
51636;SDS011;37713;53.254;6.460;2023-04-03T06:43:46;11.13;;;2.40;;
51636;SDS011;37713;53.254;6.460;2023-04-03T06:46:16;7.50;;;2.42;;
51636;SDS011;37713;53.254;6.460;2023-04-03T06:48:45;8.10;;;2.28;;
51636;SDS011;37713;53.254;6.460;2023-04-03T06:53:49;9.90;;;2.65;;
51636;SDS011;37713;53.254;6.460;2023-04-03T06:56:17;8.82;;;2.75;;
51636;SDS011;37713;53.254;6.460;2023-04-03T06:58:43;7.47;;;2.28;;
51636;SDS011;37713;53.254;6.460;2023-04-03T07:01:10;11.35;;;2.95;;
51636;SDS011;37713;53.254;6.460;2023-04-03T07:03:38;9.73;;;2.70;;
51636;SDS011;37713;53.254;6.460;2023-04-03T07:06:04;9.70;;;2.75;;
51636;SDS011;37713;53.254;6.460;2023-04-03T07:08:32;6.78;;;2.50;;
51636;SDS011;37713;53.254;6.460;2023-04-03T07:10:59;8.68;;;2.70;;
51636;SDS011;37713;53.254;6.460;2023-04-03T07:13:25;7.55;;;2.10;;
51636;SDS011;37713;53.254;6.460;2023-04-03T07:15:51;10.50;;;2.47;;
51636;SDS011;37713;53.254;6.460;2023-04-03T07:18:18;6.15;;;2.55;;
51636;SDS011;37713;53.254;6.460;2023-04-03T07:20:44;6.75;;;2.33;;
51636;SDS011;37713;53.254;6.460;2023-04-03T07:23:10;12.50;;;3.17;;
51636;SDS011;37713;53.254;6.460;2023-04-03T07:25:36;7.78;;;2.45;;
51636;SDS011;37713;53.254;6.460;2023-04-03T07:28:02;9.50;;;2.65;;
51636;SDS011;37713;53.254;6.460;2023-04-03T07:30:28;8.93;;;2.40;;
51636;SDS011;37713;53.254;6.460;2023-04-03T07:32:54;8.73;;;2.50;;
51636;SDS011;37713;53.254;6.460;2023-04-03T07:35:20;7.35;;;2.25;;
51636;SDS011;37713;53.254;6.460;2023-04-03T07:37:46;7.65;;;2.47;;
51636;SDS011;37713;53.254;6.460;2023-04-03T07:40:12;10.43;;;3.42;;
51636;SDS011;37713;53.254;6.460;2023-04-03T07:42:38;8.77;;;2.22;;
51636;SDS011;37713;53.254;6.460;2023-04-03T07:45:04;10.30;;;2.88;;
51636;SDS011;37713;53.254;6.460;2023-04-03T07:47:30;9.15;;;2.40;;
51636;SDS011;37713;53.254;6.460;2023-04-03T07:49:56;7.20;;;2.42;;
51636;SDS011;37713;53.254;6.460;2023-04-03T07:52:23;7.75;;;2.42;;
51636;SDS011;37713;53.254;6.460;2023-04-03T07:54:49;8.23;;;2.65;;
51636;SDS011;37713;53.254;6.460;2023-04-03T07:57:15;6.32;;;2.08;;
51636;SDS011;37713;53.254;6.460;2023-04-03T07:59:41;8.05;;;2.50;;
51636;SDS011;37713;53.254;6.460;2023-04-03T08:02:11;9.57;;;2.30;;
51636;SDS011;37713;53.254;6.460;2023-04-03T08:04:37;7.15;;;2.10;;
51636;SDS011;37713;53.254;6.460;2023-04-03T08:07:03;10.15;;;2.72;;
51636;SDS011;37713;53.254;6.460;2023-04-03T08:09:29;7.78;;;2.08;;
51636;SDS011;37713;53.254;6.460;2023-04-03T08:11:56;7.15;;;2.08;;
51636;SDS011;37713;53.254;6.460;2023-04-03T08:14:22;7.22;;;2.42;;
51636;SDS011;37713;53.254;6.460;2023-04-03T08:16:48;5.45;;;1.80;;
51636;SDS011;37713;53.254;6.460;2023-04-03T08:19:15;6.90;;;2.10;;
51636;SDS011;37713;53.254;6.460;2023-04-03T08:21:43;8.98;;;2.30;;
51636;SDS011;37713;53.254;6.460;2023-04-03T08:24:10;9.25;;;1.83;;
51636;SDS011;37713;53.254;6.460;2023-04-03T08:26:36;9.57;;;2.20;;
51636;SDS011;37713;53.254;6.460;2023-04-03T08:29:02;9.30;;;2.00;;
51636;SDS011;37713;53.254;6.460;2023-04-03T08:31:28;6.50;;;1.80;;
51636;SDS011;37713;53.254;6.460;2023-04-03T08:33:56;7.93;;;1.77;;
51636;SDS011;37713;53.254;6.460;2023-04-03T08:36:25;7.03;;;1.90;;
51636;SDS011;37713;53.254;6.460;2023-04-03T08:38:54;6.43;;;1.75;;
51636;SDS011;37713;53.254;6.460;2023-04-03T08:41:25;6.60;;;2.42;;
51636;SDS011;37713;53.254;6.460;2023-04-03T08:49:40;7.13;;;1.70;;
51636;SDS011;37713;53.254;6.460;2023-04-03T08:52:13;6.85;;;1.98;;
51636;SDS011;37713;53.254;6.460;2023-04-03T08:54:50;5.82;;;1.73;;
51636;SDS011;37713;53.254;6.460;2023-04-03T08:57:26;7.28;;;1.90;;
51636;SDS011;37713;53.254;6.460;2023-04-03T09:02:56;6.18;;;1.67;;
51636;SDS011;37713;53.254;6.460;2023-04-03T09:07:58;6.68;;;1.85;;
51636;SDS011;37713;53.254;6.460;2023-04-03T09:10:32;6.18;;;1.98;;
51636;SDS011;37713;53.254;6.460;2023-04-03T09:13:05;7.18;;;1.83;;
51636;SDS011;37713;53.254;6.460;2023-04-03T09:15:33;6.18;;;1.67;;
51636;SDS011;37713;53.254;6.460;2023-04-03T09:23:47;5.65;;;1.60;;
51636;SDS011;37713;53.254;6.460;2023-04-03T09:26:17;5.40;;;1.48;;
51636;SDS011;37713;53.254;6.460;2023-04-03T09:28:44;8.30;;;2.15;;
51636;SDS011;37713;53.254;6.460;2023-04-03T09:31:21;6.88;;;2.00;;
51636;SDS011;37713;53.254;6.460;2023-04-03T09:33:50;3.60;;;1.17;;
51636;SDS011;37713;53.254;6.460;2023-04-03T09:39:09;7.63;;;1.40;;
51636;SDS011;37713;53.254;6.460;2023-04-03T09:41:40;7.43;;;1.80;;
51636;SDS011;37713;53.254;6.460;2023-04-03T09:46:57;5.65;;;1.10;;
51636;SDS011;37713;53.254;6.460;2023-04-03T09:49:23;4.25;;;1.02;;
51636;SDS011;37713;53.254;6.460;2023-04-03T09:51:49;4.50;;;1.20;;
51636;SDS011;37713;53.254;6.460;2023-04-03T09:56:52;6.05;;;1.30;;
51636;SDS011;37713;53.254;6.460;2023-04-03T09:59:20;3.67;;;1.10;;
51636;SDS011;37713;53.254;6.460;2023-04-03T10:02:49;7.40;;;1.38;;
51636;SDS011;37713;53.254;6.460;2023-04-03T10:04:57;3.53;;;1.00;;
51636;SDS011;37713;53.254;6.460;2023-04-03T10:07:30;3.13;;;0.93;;
51636;SDS011;37713;53.254;6.460;2023-04-03T10:09:57;4.72;;;1.15;;
51636;SDS011;37713;53.254;6.460;2023-04-03T10:12:26;2.65;;;1.10;;
51636;SDS011;37713;53.254;6.460;2023-04-03T10:31:12;5.00;;;1.20;;
51636;SDS011;37713;53.254;6.460;2023-04-03T10:58:56;2.70;;;1.00;;
51636;SDS011;37713;53.254;6.460;2023-04-03T11:01:44;3.42;;;0.98;;
51636;SDS011;37713;53.254;6.460;2023-04-03T11:04:13;3.85;;;1.10;;
51636;SDS011;37713;53.254;6.460;2023-04-03T11:06:43;3.25;;;1.20;;
51636;SDS011;37713;53.254;6.460;2023-04-03T11:09:32;5.63;;;1.08;;
51636;SDS011;37713;53.254;6.460;2023-04-03T11:15:11;5.65;;;1.02;;
51636;SDS011;37713;53.254;6.460;2023-04-03T11:17:51;4.78;;;1.10;;
51636;SDS011;37713;53.254;6.460;2023-04-03T11:20:43;3.05;;;1.00;;
51636;SDS011;37713;53.254;6.460;2023-04-03T11:23:26;4.90;;;1.13;;
51636;SDS011;37713;53.254;6.460;2023-04-03T11:25:57;8.98;;;3.95;;
51636;SDS011;37713;53.254;6.460;2023-04-03T11:28:36;4.78;;;1.35;;
51636;SDS011;37713;53.254;6.460;2023-04-03T11:36:26;3.75;;;1.10;;
51636;SDS011;37713;53.254;6.460;2023-04-03T11:39:23;5.13;;;1.10;;
51636;SDS011;37713;53.254;6.460;2023-04-03T11:44:48;3.00;;;0.95;;
51636;SDS011;37713;53.254;6.460;2023-04-03T11:47:43;4.68;;;0.98;;
51636;SDS011;37713;53.254;6.460;2023-04-03T11:50:32;3.03;;;0.98;;
51636;SDS011;37713;53.254;6.460;2023-04-03T12:14:01;3.30;;;0.90;;
51636;SDS011;37713;53.254;6.460;2023-04-03T12:48:29;6.05;;;1.08;;
51636;SDS011;37713;53.254;6.460;2023-04-03T12:50:57;4.68;;;1.13;;
51636;SDS011;37713;53.254;6.460;2023-04-03T12:53:28;3.35;;;0.90;;
51636;SDS011;37713;53.254;6.460;2023-04-03T12:56:19;3.15;;;1.00;;
51636;SDS011;37713;53.254;6.460;2023-04-03T12:58:57;3.42;;;1.10;;
51636;SDS011;37713;53.254;6.460;2023-04-03T13:01:55;2.95;;;0.82;;
51636;SDS011;37713;53.254;6.460;2023-04-03T13:04:30;5.78;;;1.23;;
51636;SDS011;37713;53.254;6.460;2023-04-03T13:06:57;4.45;;;1.08;;
51636;SDS011;37713;53.254;6.460;2023-04-03T13:09:25;3.65;;;1.30;;
51636;SDS011;37713;53.254;6.460;2023-04-03T13:12:00;3.58;;;1.23;;
51636;SDS011;37713;53.254;6.460;2023-04-03T13:14:28;4.28;;;1.00;;
51636;SDS011;37713;53.254;6.460;2023-04-03T13:16:59;3.88;;;1.20;;
51636;SDS011;37713;53.254;6.460;2023-04-03T13:19:31;4.90;;;1.10;;
51636;SDS011;37713;53.254;6.460;2023-04-03T13:22:04;2.55;;;1.10;;
51636;SDS011;37713;53.254;6.460;2023-04-03T13:24:34;3.80;;;1.10;;
51636;SDS011;37713;53.254;6.460;2023-04-03T13:27:03;4.43;;;1.25;;
51636;SDS011;37713;53.254;6.460;2023-04-03T13:29:31;5.55;;;1.17;;
51636;SDS011;37713;53.254;6.460;2023-04-03T13:32:00;3.55;;;1.10;;
51636;SDS011;37713;53.254;6.460;2023-04-03T13:34:29;2.75;;;0.95;;
51636;SDS011;37713;53.254;6.460;2023-04-03T13:37:02;3.67;;;1.10;;
51636;SDS011;37713;53.254;6.460;2023-04-03T13:41:57;4.50;;;1.20;;
51636;SDS011;37713;53.254;6.460;2023-04-03T13:44:34;3.63;;;0.95;;
51636;SDS011;37713;53.254;6.460;2023-04-03T13:49:44;7.90;;;1.10;;
51636;SDS011;37713;53.254;6.460;2023-04-03T13:52:25;4.40;;;1.05;;
51636;SDS011;37713;53.254;6.460;2023-04-03T13:55:11;4.60;;;1.25;;
51636;SDS011;37713;53.254;6.460;2023-04-03T13:57:48;4.55;;;1.25;;
51636;SDS011;37713;53.254;6.460;2023-04-03T14:00:19;7.80;;;1.80;;
51636;SDS011;37713;53.254;6.460;2023-04-03T14:02:54;4.28;;;1.35;;
51636;SDS011;37713;53.254;6.460;2023-04-03T14:05:21;4.03;;;1.45;;
51636;SDS011;37713;53.254;6.460;2023-04-03T14:07:48;4.60;;;1.17;;
51636;SDS011;37713;53.254;6.460;2023-04-03T14:10:14;4.40;;;1.20;;
51636;SDS011;37713;53.254;6.460;2023-04-03T14:12:40;8.65;;;1.35;;
51636;SDS011;37713;53.254;6.460;2023-04-03T14:15:18;5.32;;;1.33;;
51636;SDS011;37713;53.254;6.460;2023-04-03T14:17:44;4.57;;;1.33;;
51636;SDS011;37713;53.254;6.460;2023-04-03T14:20:14;5.53;;;1.30;;
51636;SDS011;37713;53.254;6.460;2023-04-03T14:22:41;4.93;;;1.42;;
51636;SDS011;37713;53.254;6.460;2023-04-03T14:25:08;3.65;;;1.30;;
51636;SDS011;37713;53.254;6.460;2023-04-03T14:27:36;4.78;;;1.20;;
51636;SDS011;37713;53.254;6.460;2023-04-03T14:30:06;3.20;;;1.00;;
51636;SDS011;37713;53.254;6.460;2023-04-03T14:32:37;5.30;;;1.30;;
51636;SDS011;37713;53.254;6.460;2023-04-03T14:35:03;12.10;;;2.33;;
51636;SDS011;37713;53.254;6.460;2023-04-03T14:37:30;7.03;;;1.50;;
51636;SDS011;37713;53.254;6.460;2023-04-03T14:39:57;5.70;;;1.30;;
51636;SDS011;37713;53.254;6.460;2023-04-03T14:42:31;4.50;;;1.20;;
51636;SDS011;37713;53.254;6.460;2023-04-03T14:45:00;4.82;;;1.10;;
51636;SDS011;37713;53.254;6.460;2023-04-03T14:47:29;4.07;;;1.20;;
51636;SDS011;37713;53.254;6.460;2023-04-03T14:49:55;5.75;;;1.17;;
51636;SDS011;37713;53.254;6.460;2023-04-03T14:52:23;4.90;;;1.27;;
51636;SDS011;37713;53.254;6.460;2023-04-03T14:54:52;3.75;;;1.23;;
51636;SDS011;37713;53.254;6.460;2023-04-03T14:57:19;4.72;;;1.10;;
51636;SDS011;37713;53.254;6.460;2023-04-03T14:59:47;4.57;;;1.10;;
51636;SDS011;37713;53.254;6.460;2023-04-03T15:02:25;5.40;;;1.10;;
51636;SDS011;37713;53.254;6.460;2023-04-03T15:04:53;3.65;;;1.10;;
51636;SDS011;37713;53.254;6.460;2023-04-03T15:07:20;6.50;;;1.38;;
51636;SDS011;37713;53.254;6.460;2023-04-03T15:09:46;3.97;;;1.33;;
51636;SDS011;37713;53.254;6.460;2023-04-03T15:12:12;1.80;;;0.70;;
51636;SDS011;37713;53.254;6.460;2023-04-03T15:14:38;4.70;;;1.30;;
51636;SDS011;37713;53.254;6.460;2023-04-03T15:17:04;4.20;;;0.82;;
51636;SDS011;37713;53.254;6.460;2023-04-03T15:19:32;4.78;;;1.10;;
51636;SDS011;37713;53.254;6.460;2023-04-03T15:22:02;3.25;;;0.90;;
51636;SDS011;37713;53.254;6.460;2023-04-03T15:24:28;3.33;;;0.80;;
51636;SDS011;37713;53.254;6.460;2023-04-03T15:26:53;3.53;;;0.80;;
51636;SDS011;37713;53.254;6.460;2023-04-03T15:29:19;4.35;;;1.00;;
51636;SDS011;37713;53.254;6.460;2023-04-03T15:31:45;3.97;;;0.90;;
51636;SDS011;37713;53.254;6.460;2023-04-03T15:34:11;3.80;;;1.05;;
51636;SDS011;37713;53.254;6.460;2023-04-03T15:36:37;2.75;;;0.88;;
51636;SDS011;37713;53.254;6.460;2023-04-03T15:39:02;5.13;;;0.90;;
51636;SDS011;37713;53.254;6.460;2023-04-03T15:41:28;3.88;;;0.95;;
51636;SDS011;37713;53.254;6.460;2023-04-03T15:43:54;5.00;;;0.95;;
51636;SDS011;37713;53.254;6.460;2023-04-03T15:46:20;4.43;;;1.10;;
51636;SDS011;37713;53.254;6.460;2023-04-03T15:48:46;8.20;;;0.93;;
51636;SDS011;37713;53.254;6.460;2023-04-03T15:51:11;13.35;;;5.60;;
51636;SDS011;37713;53.254;6.460;2023-04-03T15:53:37;12.05;;;5.07;;
51636;SDS011;37713;53.254;6.460;2023-04-03T15:56:03;6.97;;;1.30;;
51636;SDS011;37713;53.254;6.460;2023-04-03T15:58:29;4.55;;;1.17;;
51636;SDS011;37713;53.254;6.460;2023-04-03T16:00:55;2.55;;;1.00;;
51636;SDS011;37713;53.254;6.460;2023-04-03T16:03:21;4.95;;;1.23;;
51636;SDS011;37713;53.254;6.460;2023-04-03T16:05:49;5.43;;;1.10;;
51636;SDS011;37713;53.254;6.460;2023-04-03T16:08:15;6.03;;;1.15;;
51636;SDS011;37713;53.254;6.460;2023-04-03T16:10:42;4.70;;;1.20;;
51636;SDS011;37713;53.254;6.460;2023-04-03T16:13:11;3.33;;;1.25;;
51636;SDS011;37713;53.254;6.460;2023-04-03T16:15:37;5.97;;;1.63;;
51636;SDS011;37713;53.254;6.460;2023-04-03T16:18:03;3.08;;;0.95;;
51636;SDS011;37713;53.254;6.460;2023-04-03T16:20:30;4.72;;;1.38;;
51636;SDS011;37713;53.254;6.460;2023-04-03T16:22:56;5.93;;;1.08;;
51636;SDS011;37713;53.254;6.460;2023-04-03T16:25:25;4.55;;;1.02;;
51636;SDS011;37713;53.254;6.460;2023-04-03T16:27:51;3.72;;;1.10;;
51636;SDS011;37713;53.254;6.460;2023-04-03T16:30:18;5.30;;;1.17;;
51636;SDS011;37713;53.254;6.460;2023-04-03T16:32:44;4.32;;;1.10;;
51636;SDS011;37713;53.254;6.460;2023-04-03T16:35:10;4.93;;;1.33;;
51636;SDS011;37713;53.254;6.460;2023-04-03T16:37:37;5.75;;;1.27;;
51636;SDS011;37713;53.254;6.460;2023-04-03T16:40:04;4.28;;;1.10;;
51636;SDS011;37713;53.254;6.460;2023-04-03T16:42:31;4.70;;;1.00;;
51636;SDS011;37713;53.254;6.460;2023-04-03T16:44:57;3.60;;;1.20;;
51636;SDS011;37713;53.254;6.460;2023-04-03T16:47:25;4.53;;;1.17;;
51636;SDS011;37713;53.254;6.460;2023-04-03T16:49:50;5.63;;;1.10;;
51636;SDS011;37713;53.254;6.460;2023-04-03T16:52:16;4.60;;;1.10;;
51636;SDS011;37713;53.254;6.460;2023-04-03T16:54:44;5.75;;;1.35;;
51636;SDS011;37713;53.254;6.460;2023-04-03T16:57:11;5.97;;;1.52;;
51636;SDS011;37713;53.254;6.460;2023-04-03T16:59:37;6.10;;;1.45;;
51636;SDS011;37713;53.254;6.460;2023-04-03T17:02:02;4.43;;;1.33;;
51636;SDS011;37713;53.254;6.460;2023-04-03T17:04:28;5.78;;;1.17;;
51636;SDS011;37713;53.254;6.460;2023-04-03T17:06:54;3.38;;;1.20;;
51636;SDS011;37713;53.254;6.460;2023-04-03T17:09:20;5.57;;;1.00;;
51636;SDS011;37713;53.254;6.460;2023-04-03T17:11:50;3.60;;;1.15;;
51636;SDS011;37713;53.254;6.460;2023-04-03T17:14:18;3.42;;;1.10;;
51636;SDS011;37713;53.254;6.460;2023-04-03T17:16:44;5.72;;;2.08;;